Time;durP1;ratioP1;P1;durP2;ratioP2;P2;SDS_P1;SDS_P2;PMS_P1;PMS_P2;Temp;Humidity;BMP_temperature;BMP_pressure;BME280_temperature;BME280_humidity;BME280_pressure;Samples;Min_cycle;Max_cycle;Signal;HPM_P1;HPM_P2
2021/04/17 00:01:18;;;;;;;0.20;0.20;;;;;;;0.98;34.62;99217.81;5113206;28;20027;-59
2021/04/17 00:03:44;;;;;;;0.20;0.20;;;;;;;0.96;34.69;99209.84;5094852;28;20035;-58
2021/04/17 00:06:10;;;;;;;0.20;0.20;;;;;;;0.94;34.76;99209.16;5113514;28;20050;-58
2021/04/17 00:08:35;;;;;;;0.20;0.20;;;;;;;0.95;34.57;99208.16;5113634;28;20492;-57
2021/04/17 00:11:02;;;;;;;0.20;0.20;;;;;;;0.93;34.67;99210.19;5113222;28;20077;-59
2021/04/17 00:13:28;;;;;;;0.90;0.90;;;;;;;0.89;34.65;99208.81;5113037;28;20123;-58
2021/04/17 00:15:54;;;;;;;0.30;0.30;;;;;;;0.86;34.59;99201.03;5077942;28;20114;-58
2021/04/17 00:18:20;;;;;;;0.20;0.20;;;;;;;0.84;34.73;99203.03;5094662;28;20497;-58
2021/04/17 00:20:46;;;;;;;0.57;0.57;;;;;;;0.81;34.86;99196.13;5113006;28;20032;-59
2021/04/17 00:23:12;;;;;;;0.20;0.20;;;;;;;0.80;34.86;99190.88;5112964;28;20028;-58
2021/04/17 00:25:37;;;;;;;0.20;0.20;;;;;;;0.79;34.81;99198.13;5112949;28;20039;-58
2021/04/17 00:28:03;;;;;;;0.20;0.20;;;;;;;0.79;34.85;99190.00;5112821;28;20032;-57
2021/04/17 00:30:29;;;;;;;0.20;0.20;;;;;;;0.79;34.81;99191.88;5113445;28;20035;-58
2021/04/17 00:32:55;;;;;;;0.20;0.20;;;;;;;0.82;34.79;99189.69;5094586;28;20036;-57
2021/04/17 00:35:21;;;;;;;0.20;0.20;;;;;;;0.87;34.83;99191.91;5094470;28;20076;-58
2021/04/17 00:37:46;;;;;;;0.20;0.20;;;;;;;0.90;34.77;99188.88;5112730;28;20131;-59
2021/04/17 00:40:12;;;;;;;0.20;0.20;;;;;;;0.92;34.76;99181.44;5113530;28;20118;-58
2021/04/17 00:42:38;;;;;;;0.20;0.20;;;;;;;0.92;34.63;99181.44;5112885;28;20035;-58
2021/04/17 00:45:06;;;;;;;0.20;0.20;;;;;;;0.93;34.78;99180.44;5113000;28;20035;-56
2021/04/17 00:47:32;;;;;;;0.20;0.20;;;;;;;0.95;34.74;99177.56;5112694;28;20031;-57
2021/04/17 00:49:58;;;;;;;0.20;0.20;;;;;;;0.95;34.66;99174.88;5112714;28;20034;-57
2021/04/17 00:52:24;;;;;;;0.20;0.20;;;;;;;0.98;34.76;99178.06;5112726;28;20028;-57
2021/04/17 00:54:50;;;;;;;0.20;0.20;;;;;;;1.02;34.80;99189.44;5112591;28;20035;-58
2021/04/17 00:57:16;;;;;;;0.20;0.20;;;;;;;1.02;34.66;99189.44;5094297;28;20032;-58
2021/04/17 00:59:42;;;;;;;0.20;0.20;;;;;;;0.98;34.69;99185.34;5112599;28;20122;-59
2021/04/17 01:02:09;;;;;;;0.20;0.20;;;;;;;0.94;34.87;99190.22;5116389;28;20063;-57
2021/04/17 01:04:41;;;;;;;0.20;0.20;;;;;;;0.90;35.02;99188.03;5116501;28;20087;-59
2021/04/17 01:07:23;;;;;;;0.25;0.25;;;;;;;0.83;35.06;99185.97;5116566;28;20035;-58
2021/04/17 01:10:12;;;;;;;0.20;0.20;;;;;;;0.78;35.13;99192.88;5116623;28;20040;-59
2021/04/17 01:12:45;;;;;;;0.20;0.20;;;;;;;0.77;35.28;99183.94;5116938;28;20054;-59
2021/04/17 01:15:14;;;;;;;0.30;0.30;;;;;;;0.79;35.18;99186.47;5116277;28;20040;-59
2021/04/17 01:17:43;;;;;;;0.20;0.20;;;;;;;0.82;35.14;99183.44;5097906;28;20035;-58
2021/04/17 01:20:16;;;;;;;0.20;0.20;;;;;;;0.83;35.18;99177.88;5116056;28;20023;-58
2021/04/17 01:22:57;;;;;;;0.20;0.20;;;;;;;0.89;35.05;99173.66;5116001;28;20507;-58
2021/04/17 01:25:53;;;;;;;0.20;0.20;;;;;;;0.98;35.01;99175.38;5115958;28;20035;-63
2021/04/17 01:28:22;;;;;;;0.20;0.20;;;;;;;1.06;34.84;99174.56;5116397;28;20089;-59
2021/04/17 01:30:55;;;;;;;0.20;0.20;;;;;;;1.12;34.91;99181.16;5115651;28;20059;-61
2021/04/17 01:33:26;;;;;;;0.35;0.35;;;;;;;1.18;34.87;99175.94;5116173;28;20059;-57
2021/04/17 01:35:53;;;;;;;0.95;0.95;;;;;;;1.28;34.76;99183.94;5116133;28;20124;-58
2021/04/17 01:38:27;;;;;;;0.30;0.30;;;;;;;1.36;34.63;99185.78;5093615;28;20052;-57
2021/04/17 01:40:59;;;;;;;0.52;0.52;;;;;;;1.44;34.67;99184.94;5095340;28;20055;-58
2021/04/17 01:43:27;;;;;;;0.60;0.60;;;;;;;1.52;34.60;99182.28;5095762;28;20128;-58
2021/04/17 01:45:54;;;;;;;0.20;0.20;;;;;;;1.65;34.51;99177.22;5095347;28;20441;-58
2021/04/17 01:48:21;;;;;;;0.50;0.50;;;;;;;2.56;33.49;99180.66;5095220;28;20398;-59
2021/04/17 01:50:50;;;;;;;0.20;0.20;;;;;;;4.88;30.74;99175.97;5095010;28;20024;-57
2021/04/17 01:53:21;;;;;;;0.20;0.20;;;;;;;7.42;27.97;99166.31;5095316;28;20024;-58
2021/04/17 01:55:48;;;;;;;0.20;0.20;;;;;;;9.44;26.38;99168.63;5095518;28;20035;-59
2021/04/17 01:58:20;;;;;;;0.20;0.20;;;;;;;11.00;25.46;99158.94;5095315;28;20028;-58
2021/04/17 02:00:47;;;;;;;0.20;0.20;;;;;;;12.23;24.80;99162.31;5095179;28;20024;-57
2021/04/17 02:03:13;;;;;;;0.20;0.20;;;;;;;13.21;24.72;99164.53;5095105;28;20488;-58
2021/04/17 02:05:38;;;;;;;0.20;0.20;;;;;;;13.84;24.58;99160.00;5095200;28;20043;-59
2021/04/17 02:08:04;;;;;;;0.30;0.30;;;;;;;14.44;24.89;99165.16;5095033;28;20512;-58
2021/04/17 02:10:30;;;;;;;0.22;0.22;;;;;;;15.03;24.59;99165.53;5094757;28;20567;-58
2021/04/17 02:12:56;;;;;;;0.20;0.20;;;;;;;15.64;24.69;99161.03;5093521;28;20035;-60
2021/04/17 02:15:22;;;;;;;0.10;0.10;;;;;;;16.41;24.56;99167.34;5094530;28;20028;-60
2021/04/17 02:18:00;;;;;;;0.20;0.20;;;;;;;17.16;24.11;99162.56;5094638;28;20024;-59
2021/04/17 02:20:35;;;;;;;0.10;0.10;;;;;;;17.68;24.14;99157.22;5094521;28;20062;-60
2021/04/17 02:23:01;;;;;;;0.22;0.22;;;;;;;18.32;23.77;99163.50;5094693;28;20040;-59
2021/04/17 02:25:28;;;;;;;0.13;0.13;;;;;;;18.86;23.59;99146.22;5093597;28;20486;-58
2021/04/17 02:27:54;;;;;;;2.17;0.52;;;;;;;19.58;23.40;99165.47;5083773;28;22068;-58
2021/04/17 02:30:20;;;;;;;0.30;0.30;;;;;;;20.08;23.23;99159.06;5082593;28;20119;-60
2021/04/17 02:32:46;;;;;;;0.40;0.40;;;;;;;20.50;23.12;99163.22;5083925;28;20032;-58
2021/04/17 02:35:13;;;;;;;0.15;0.15;;;;;;;20.73;23.42;99152.44;5084485;28;20053;-58
2021/04/17 02:37:38;;;;;;;3.08;1.02;;;;;;;21.12;23.32;99152.31;5080085;28;20127;-60
2021/04/17 02:40:05;;;;;;;0.20;0.20;;;;;;;21.53;23.31;99151.84;5074208;28;20124;-60
2021/04/17 02:42:31;;;;;;;0.55;0.22;;;;;;;21.87;23.25;99150.00;5072248;28;20024;-62
2021/04/17 02:44:57;;;;;;;1.55;0.57;;;;;;;22.27;23.06;99153.28;5078203;28;20033;-60
2021/04/17 02:47:22;;;;;;;0.70;0.65;;;;;;;22.64;22.81;99157.19;5089600;28;20048;-60
2021/04/17 02:49:49;;;;;;;0.10;0.10;;;;;;;22.99;22.90;99157.66;5074247;28;20020;-61
2021/04/17 02:52:15;;;;;;;0.40;0.40;;;;;;;23.35;22.63;99147.75;5073632;28;20038;-61
2021/04/17 02:54:41;;;;;;;0.17;0.17;;;;;;;23.70;22.66;99154.56;5055708;28;20028;-59
2021/04/17 02:57:06;;;;;;;0.40;0.40;;;;;;;23.92;22.58;99150.22;5073995;28;20553;-60
2021/04/17 02:59:32;;;;;;;0.50;0.50;;;;;;;24.09;22.88;99146.75;5073602;28;20025;-60
2021/04/17 03:01:58;;;;;;;0.10;0.10;;;;;;;24.29;22.74;99148.22;5073278;28;20033;-61
2021/04/17 03:04:24;;;;;;;0.10;0.10;;;;;;;24.58;22.57;99146.94;5085147;28;20040;-60
2021/04/17 03:06:50;;;;;;;0.10;0.10;;;;;;;25.22;22.12;99148.63;5073087;28;20037;-60
2021/04/17 03:09:15;;;;;;;1.27;0.35;;;;;;;25.29;22.27;99152.63;5072471;28;20024;-59
2021/04/17 03:11:41;;;;;;;0.17;0.17;;;;;;;25.40;22.66;99146.72;5091862;28;20067;-60
2021/04/17 03:14:07;;;;;;;0.75;0.40;;;;;;;25.36;22.93;99135.31;5093888;28;20126;-60
2021/04/17 03:16:34;;;;;;;0.10;0.10;;;;;;;25.50;22.58;99133.22;5093641;28;20036;-60
2021/04/17 03:19:00;;;;;;;0.10;0.10;;;;;;;25.76;22.70;99132.44;5093194;28;20035;-61
2021/04/17 03:21:26;;;;;;;1.25;0.52;;;;;;;25.92;22.57;99146.84;5076057;28;20040;-62
2021/04/17 03:23:52;;;;;;;0.10;0.10;;;;;;;25.92;22.43;99143.22;5087458;28;20071;-60
2021/04/17 03:26:18;;;;;;;1.40;0.55;;;;;;;26.07;22.52;99131.50;5088542;28;20032;-59
2021/04/17 03:28:44;;;;;;;0.10;0.10;;;;;;;25.91;22.63;99135.94;5092687;28;20085;-66
2021/04/17 03:31:11;;;;;;;0.10;0.10;;;;;;;26.08;22.46;99132.34;5075089;28;20028;-62
2021/04/17 03:33:37;;;;;;;0.32;0.32;;;;;;;26.21;22.43;99126.53;5093289;28;20409;-60
2021/04/17 03:36:03;;;;;;;0.20;0.20;;;;;;;26.40;22.47;99128.19;5087314;28;20027;-62
2021/04/17 03:38:28;;;;;;;0.10;0.10;;;;;;;26.49;22.44;99128.19;5092967;28;20067;-60
2021/04/17 03:40:54;;;;;;;0.20;0.20;;;;;;;26.67;21.86;99126.16;5093599;28;20028;-61
2021/04/17 03:43:20;;;;;;;0.20;0.20;;;;;;;26.82;22.23;99120.00;5093504;28;20051;-60
2021/04/17 03:45:46;;;;;;;2.53;0.63;;;;;;;26.90;22.03;99119.16;5074873;28;20036;-62
2021/04/17 03:48:12;;;;;;;0.30;0.30;;;;;;;27.10;21.83;99116.75;5093422;28;20023;-59
2021/04/17 03:50:38;;;;;;;0.10;0.10;;;;;;;27.19;22.04;99114.72;5092905;28;20086;-63
2021/04/17 03:53:04;;;;;;;0.50;0.50;;;;;;;27.27;21.60;99122.31;5092816;28;20123;-62
2021/04/17 03:55:32;;;;;;;0.40;0.40;;;;;;;27.35;21.89;99109.38;5093417;28;20032;-62
2021/04/17 03:57:58;;;;;;;0.20;0.20;;;;;;;27.45;21.85;99116.63;5093173;28;20036;-61
2021/04/17 04:00:24;;;;;;;0.30;0.30;;;;;;;27.48;21.74;99115.94;5093191;28;20428;-61
2021/04/17 04:02:50;;;;;;;0.20;0.20;;;;;;;27.57;21.82;99113.88;5092831;28;20062;-61
2021/04/17 04:05:16;;;;;;;0.30;0.30;;;;;;;27.23;21.84;99123.34;5093095;28;20059;-62
2021/04/17 04:07:42;;;;;;;0.10;0.10;;;;;;;27.13;21.99;99126.53;5093077;28;20505;-61
2021/04/17 04:10:10;;;;;;;0.20;0.20;;;;;;;27.16;21.79;99118.22;5075107;28;20440;-61
2021/04/17 04:12:36;;;;;;;0.15;0.15;;;;;;;27.33;21.57;99119.31;5086187;28;20032;-63
2021/04/17 04:15:05;;;;;;;0.30;0.30;;;;;;;27.18;21.78;99117.88;5091496;28;20586;-60
2021/04/17 04:17:31;;;;;;;0.05;0.05;;;;;;;26.69;21.96;99116.25;5086515;28;20028;-61
2021/04/17 04:19:57;;;;;;;0.35;0.28;;;;;;;25.56;22.88;99114.22;5091016;28;20418;-59
2021/04/17 04:22:24;;;;;;;0.60;0.60;;;;;;;23.02;24.73;99117.84;5091220;28;20036;-61
2021/04/17 04:24:49;;;;;;;0.10;0.10;;;;;;;20.34;27.17;99122.66;5087001;28;20497;-60
2021/04/17 04:27:15;;;;;;;2.60;0.43;;;;;;;18.25;28.99;99130.41;5091163;28;20073;-60
2021/04/17 04:29:42;;;;;;;0.10;0.10;;;;;;;16.39;30.49;99116.88;5091223;28;20024;-60
2021/04/17 04:32:08;;;;;;;0.10;0.10;;;;;;;14.94;31.27;99116.47;5086734;28;20412;-62
2021/04/17 04:34:34;;;;;;;0.52;0.35;;;;;;;13.86;31.79;99117.53;5067537;28;20085;-65
2021/04/17 04:37:00;;;;;;;0.20;0.20;;;;;;;13.09;31.63;99120.47;5095171;28;20044;-64
2021/04/17 04:39:26;;;;;;;0.38;0.20;;;;;;;12.45;31.61;99125.91;5105733;28;20017;-61
2021/04/17 04:41:53;;;;;;;0.10;0.10;;;;;;;11.90;31.24;99116.03;5104081;28;20039;-61
2021/04/17 04:44:19;;;;;;;0.65;0.65;;;;;;;11.46;31.18;99113.50;5095558;28;20497;-64
2021/04/17 04:46:45;;;;;;;0.40;0.40;;;;;;;11.16;30.75;99114.34;5106666;28;20453;-61
2021/04/17 04:49:11;;;;;;;0.38;0.38;;;;;;;10.93;30.48;99116.97;5105024;28;20059;-61
2021/04/17 04:51:37;;;;;;;0.10;0.10;;;;;;;10.62;30.28;99116.88;5101458;28;20059;-62
2021/04/17 04:54:03;;;;;;;0.10;0.10;;;;;;;10.40;29.82;99105.47;5061462;28;20036;-60
2021/04/17 04:56:29;;;;;;;0.10;0.10;;;;;;;10.18;29.74;99105.84;5086237;28;20123;-62
2021/04/17 04:58:55;;;;;;;0.30;0.30;;;;;;;10.00;29.43;99105.81;5105269;28;20046;-60
2021/04/17 05:01:20;;;;;;;0.20;0.20;;;;;;;9.85;29.25;99113.53;5104642;28;20108;-62
2021/04/17 05:03:46;;;;;;;0.20;0.20;;;;;;;9.67;29.05;99114.28;5091146;28;20047;-62
2021/04/17 05:06:12;;;;;;;0.20;0.20;;;;;;;9.52;28.94;99103.66;5089910;28;20035;-60
2021/04/17 05:08:38;;;;;;;0.20;0.20;;;;;;;9.40;28.69;99107.06;5095542;28;20034;-61
2021/04/17 05:11:04;;;;;;;0.20;0.20;;;;;;;9.21;28.65;99111.59;5105377;28;20073;-61
2021/04/17 05:13:31;;;;;;;0.40;0.40;;;;;;;9.01;28.62;99103.50;5093865;28;20028;-66
2021/04/17 05:15:57;;;;;;;0.43;0.43;;;;;;;8.91;28.44;99093.00;5098565;28;20115;-60
2021/04/17 05:18:25;;;;;;;0.85;0.85;;;;;;;8.84;28.39;99094.94;5071075;28;20147;-61
2021/04/17 05:20:52;;;;;;;0.30;0.30;;;;;;;8.75;28.23;99097.06;5089562;28;20040;-61
2021/04/17 05:23:18;;;;;;;0.35;0.35;;;;;;;8.70;28.01;99091.41;5059304;28;20504;-60
2021/04/17 05:25:44;;;;;;;0.20;0.20;;;;;;;8.66;28.01;99086.59;5088750;28;20039;-60
2021/04/17 05:28:11;;;;;;;0.20;0.20;;;;;;;8.64;27.88;99089.50;5081011;28;20054;-62
2021/04/17 05:30:38;;;;;;;0.10;0.10;;;;;;;8.64;27.65;99091.41;5075540;28;20059;-61
2021/04/17 05:33:04;;;;;;;2.72;1.48;;;;;;;8.59;27.67;99081.94;5101343;28;20086;-61
2021/04/17 05:35:30;;;;;;;0.10;0.10;;;;;;;8.55;27.60;99072.50;5095284;28;20494;-63
2021/04/17 05:37:57;;;;;;;0.10;0.10;;;;;;;8.52;27.47;99072.09;5102079;28;20045;-62
2021/04/17 05:40:24;;;;;;;0.55;0.50;;;;;;;8.53;27.48;99073.78;5111604;28;20133;-60
2021/04/17 05:43:01;;;;;;;0.10;0.10;;;;;;;8.48;27.41;99070.81;5113698;28;20023;-63
2021/04/17 05:45:32;;;;;;;0.20;0.20;;;;;;;8.44;27.41;99069.56;5113501;28;20059;-63
2021/04/17 05:47:58;;;;;;;0.10;0.10;;;;;;;8.49;27.19;99072.50;5112188;28;20066;-59
2021/04/17 05:50:24;;;;;;;0.20;0.20;;;;;;;8.50;27.18;99064.09;5091886;28;20024;-61
2021/04/17 05:52:50;;;;;;;0.20;0.20;;;;;;;8.48;27.23;99062.63;5111931;28;20032;-59
2021/04/17 05:55:16;;;;;;;0.20;0.20;;;;;;;8.47;27.18;99066.44;5113564;28;20028;-61
2021/04/17 05:57:42;;;;;;;0.20;0.20;;;;;;;8.47;26.96;99063.69;5113660;28;20027;-62
2021/04/17 06:00:09;;;;;;;0.20;0.20;;;;;;;8.48;27.03;99054.41;5108890;28;20032;-62
2021/04/17 06:02:36;;;;;;;0.20;0.20;;;;;;;8.51;27.04;99060.31;5102788;28;20031;-59
2021/04/17 06:05:02;;;;;;;0.20;0.20;;;;;;;8.55;26.91;99067.03;5110578;28;20031;-62
2021/04/17 06:07:28;;;;;;;0.30;0.30;;;;;;;8.56;26.87;99068.69;5106035;28;20080;-60
2021/04/17 06:09:54;;;;;;;0.20;0.20;;;;;;;8.57;26.84;99067.66;5112839;28;20065;-60
2021/04/17 06:12:25;;;;;;;0.20;0.20;;;;;;;8.59;26.83;99051.84;5088833;28;20499;-58
2021/04/17 06:14:52;;;;;;;0.20;0.20;;;;;;;8.58;26.86;99052.06;5094040;28;20024;-59
2021/04/17 06:17:17;;;;;;;0.55;0.55;;;;;;;8.58;26.82;99055.66;5100764;28;20036;-59
2021/04/17 06:19:43;;;;;;;0.10;0.10;;;;;;;8.63;26.80;99046.78;5110517;28;20396;-60
2021/04/17 06:22:09;;;;;;;0.20;0.20;;;;;;;8.66;26.73;99043.63;5081473;28;20070;-59
2021/04/17 06:24:35;;;;;;;0.10;0.10;;;;;;;8.71;26.72;99053.91;5110703;28;20076;-59
2021/04/17 06:27:01;;;;;;;0.10;0.10;;;;;;;8.79;26.69;99045.47;5090138;28;20532;-61
2021/04/17 06:29:27;;;;;;;0.10;0.10;;;;;;;8.85;26.59;99043.72;5105788;28;20028;-63
2021/04/17 06:31:53;;;;;;;0.22;0.20;;;;;;;8.91;26.49;99034.66;5112626;28;20031;-63
2021/04/17 06:34:19;;;;;;;0.10;0.10;;;;;;;8.94;26.52;99039.69;5111050;28;20427;-59
2021/04/17 06:36:44;;;;;;;0.20;0.20;;;;;;;8.97;26.51;99041.16;5098860;28;20043;-59
2021/04/17 06:39:10;;;;;;;0.10;0.10;;;;;;;8.98;26.51;99032.72;5065811;28;20501;-59
2021/04/17 06:41:41;;;;;;;0.20;0.20;;;;;;;9.04;26.58;99034.59;5092508;28;20024;-59
2021/04/17 06:44:07;;;;;;;0.90;0.90;;;;;;;9.09;26.47;99022.97;5092550;28;20036;-58
2021/04/17 06:46:34;;;;;;;0.20;0.20;;;;;;;9.12;26.54;99022.53;5080184;28;20288;-60
2021/04/17 06:49:06;;;;;;;0.10;0.10;;;;;;;9.16;26.42;99018.28;5090268;28;20093;-59
2021/04/17 06:51:35;;;;;;;0.10;0.10;;;;;;;9.23;26.47;99010.00;5072157;28;20071;-60
2021/04/17 06:54:02;;;;;;;0.10;0.10;;;;;;;9.28;26.37;99008.28;5085872;28;20064;-60
2021/04/17 06:56:28;;;;;;;0.10;0.10;;;;;;;9.24;26.48;99014.44;5086069;28;20048;-60
2021/04/17 06:58:55;;;;;;;0.10;0.10;;;;;;;9.16;26.61;99001.84;5091452;28;20028;-62
2021/04/17 07:01:21;;;;;;;0.20;0.20;;;;;;;9.12;26.42;99000.63;5085849;28;20067;-60
2021/04/17 07:03:47;;;;;;;0.10;0.10;;;;;;;9.14;26.62;99005.88;5091883;28;20027;-60
2021/04/17 07:06:14;;;;;;;0.10;0.10;;;;;;;9.13;26.62;99005.03;5092062;28;20036;-61
2021/04/17 07:08:41;;;;;;;0.20;0.20;;;;;;;9.16;26.72;99012.81;5092261;28;20385;-62
2021/04/17 07:11:08;;;;;;;0.20;0.20;;;;;;;9.17;26.57;99002.69;5091752;28;20034;-60
2021/04/17 07:13:36;;;;;;;0.10;0.10;;;;;;;9.15;26.63;99002.06;5088580;28;20036;-61
2021/04/17 07:16:08;;;;;;;0.20;0.20;;;;;;;9.15;26.64;98985.63;5088274;28;20036;-59
2021/04/17 07:18:39;;;;;;;0.20;0.20;;;;;;;9.18;26.66;98975.06;5070498;28;20505;-58
2021/04/17 07:21:13;;;;;;;0.10;0.10;;;;;;;9.20;26.59;98977.59;5090913;28;20023;-62
2021/04/17 07:23:41;;;;;;;0.10;0.10;;;;;;;9.31;26.59;98982.34;5108530;28;20039;-64
2021/04/17 07:26:13;;;;;;;0.20;0.20;;;;;;;9.41;26.53;98970.91;5074801;28;20043;-60
2021/04/17 07:28:56;;;;;;;0.20;0.20;;;;;;;9.54;26.43;98967.19;5093132;28;20521;-61
2021/04/17 07:31:28;;;;;;;0.10;0.10;;;;;;;9.63;26.34;98974.91;5063755;28;20515;-61
2021/04/17 07:33:55;;;;;;;0.20;0.20;;;;;;;9.68;26.29;98971.50;5086899;28;20032;-61
2021/04/17 07:36:22;;;;;;;0.20;0.20;;;;;;;9.72;26.36;98966.41;5081436;28;20032;-62
2021/04/17 07:38:48;;;;;;;0.47;0.38;;;;;;;9.72;26.43;98961.75;5072386;28;20039;-61
2021/04/17 07:41:20;;;;;;;0.20;0.20;;;;;;;9.69;26.39;98961.34;5072726;28;20038;-62
2021/04/17 07:43:55;;;;;;;0.17;0.17;;;;;;;9.69;26.47;98945.75;5072517;28;20028;-59
2021/04/17 07:46:42;;;;;;;0.20;0.20;;;;;;;9.77;26.52;98959.16;5072621;28;20490;-59
2021/04/17 07:49:18;;;;;;;0.10;0.10;;;;;;;9.82;26.48;98942.88;5074027;28;20105;-59
2021/04/17 07:51:57;;;;;;;0.68;0.68;;;;;;;9.78;26.42;98954.53;5092839;28;20038;-61
2021/04/17 07:54:23;;;;;;;0.30;0.30;;;;;;;9.74;26.51;98948.66;5092436;28;20054;-59
2021/04/17 07:56:49;;;;;;;0.10;0.10;;;;;;;9.75;26.59;98942.13;5089415;28;20028;-60
2021/04/17 07:59:20;;;;;;;0.45;0.45;;;;;;;9.77;26.58;98937.22;5093214;28;20081;-60
2021/04/17 08:01:48;;;;;;;0.10;0.10;;;;;;;9.79;26.45;98942.50;5078048;28;20032;-60
2021/04/17 08:04:24;;;;;;;0.15;0.15;;;;;;;9.73;26.78;98933.28;5075680;28;20032;-60
2021/04/17 08:06:52;;;;;;;0.10;0.10;;;;;;;9.67;26.64;98925.13;5070671;28;20093;-60
2021/04/17 08:09:21;;;;;;;0.10;0.10;;;;;;;9.69;26.66;98926.56;5089684;28;20497;-59
2021/04/17 08:11:52;;;;;;;0.10;0.10;;;;;;;9.71;26.78;98921.69;5091468;28;20089;-56
2021/04/17 08:14:20;;;;;;;0.10;0.10;;;;;;;9.68;26.69;98919.41;5085776;28;20060;-59
2021/04/17 08:16:46;;;;;;;0.10;0.10;;;;;;;9.68;26.74;98911.19;5072351;28;20405;-61
2021/04/17 08:19:12;;;;;;;0.85;0.85;;;;;;;9.71;26.64;98913.47;5072531;28;20036;-61
2021/04/17 08:21:38;;;;;;;0.10;0.10;;;;;;;9.73;26.67;98908.59;5075887;28;20036;-61
2021/04/17 08:24:05;;;;;;;0.10;0.10;;;;;;;9.81;26.65;98901.97;5084474;28;20556;-61
2021/04/17 08:26:33;;;;;;;0.10;0.10;;;;;;;9.82;26.57;98906.41;5081469;28;21012;-58
2021/04/17 08:29:00;;;;;;;0.10;0.10;;;;;;;9.78;26.74;98911.50;5088455;28;20060;-58
2021/04/17 08:31:35;;;;;;;0.20;0.20;;;;;;;9.75;26.61;98906.47;5086259;28;20113;-58
2021/04/17 08:34:10;;;;;;;0.10;0.10;;;;;;;9.78;26.54;98896.94;5084266;28;20094;-60
2021/04/17 08:36:46;;;;;;;0.10;0.10;;;;;;;9.83;26.65;98888.88;5073073;28;20040;-59
2021/04/17 08:39:36;;;;;;;0.10;0.10;;;;;;;9.89;26.47;98879.72;5100241;28;20040;-59
2021/04/17 08:42:09;;;;;;;0.10;0.10;;;;;;;9.85;26.46;98881.28;5088742;28;20125;-58
2021/04/17 08:44:40;;;;;;;0.13;0.13;;;;;;;9.81;26.52;98888.28;5081604;28;20497;-59
2021/04/17 08:47:08;;;;;;;0.20;0.20;;;;;;;9.81;26.66;98880.03;5091300;28;20555;-59
2021/04/17 08:49:36;;;;;;;0.15;0.15;;;;;;;9.86;26.52;98873.88;5099881;28;20027;-58
2021/04/17 08:52:19;;;;;;;0.20;0.20;;;;;;;9.92;26.37;98867.47;5092076;28;20070;-60
2021/04/17 08:54:49;;;;;;;0.22;0.22;;;;;;;10.05;26.45;98871.97;5099275;28;20028;-59
2021/04/17 08:57:17;;;;;;;0.10;0.10;;;;;;;10.20;26.28;98863.31;5101832;28;20114;-61
2021/04/17 08:59:54;;;;;;;0.15;0.15;;;;;;;10.26;26.28;98855.00;5080847;28;20022;-59
2021/04/17 09:02:23;;;;;;;0.30;0.30;;;;;;;10.32;26.26;98866.94;5079767;28;20101;-61
2021/04/17 09:05:10;;;;;;;0.20;0.20;;;;;;;10.28;26.34;98869.31;5098208;28;20072;-60
2021/04/17 09:07:43;;;;;;;0.10;0.10;;;;;;;10.27;26.42;98870.38;5101259;28;20081;-57
2021/04/17 09:10:24;;;;;;;0.10;0.10;;;;;;;10.29;26.36;98851.81;5092937;28;20040;-58
2021/04/17 09:13:09;;;;;;;0.20;0.20;;;;;;;10.29;26.33;98837.22;5089145;28;20064;-58
2021/04/17 09:15:58;;;;;;;0.17;0.17;;;;;;;10.36;26.43;98838.00;5074853;28;20024;-60
2021/04/17 09:18:37;;;;;;;0.20;0.20;;;;;;;10.43;26.34;98835.19;5076366;28;20064;-63
2021/04/17 09:21:30;;;;;;;0.10;0.10;;;;;;;10.47;26.20;98836.38;5063495;28;20040;-60
2021/04/17 09:24:00;;;;;;;0.10;0.10;;;;;;;10.44;26.34;98836.88;5092630;28;20047;-62
2021/04/17 09:26:29;;;;;;;0.80;0.80;;;;;;;10.49;26.29;98828.75;5093595;28;20035;-60
2021/04/17 09:28:56;;;;;;;0.20;0.20;;;;;;;10.51;26.16;98823.84;5104787;28;20101;-60
2021/04/17 09:31:23;;;;;;;0.10;0.10;;;;;;;10.56;26.33;98820.44;5104678;28;20019;-62
2021/04/17 09:34:08;;;;;;;0.10;0.10;;;;;;;10.68;26.18;98815.78;5103613;28;20088;-60
2021/04/17 09:36:41;;;;;;;0.15;0.15;;;;;;;10.75;26.37;98822.00;5094788;28;20177;-61
2021/04/17 09:39:33;;;;;;;0.20;0.20;;;;;;;10.76;26.19;98812.72;5093109;28;20501;-61
2021/04/17 09:42:06;;;;;;;0.10;0.10;;;;;;;10.77;26.27;98803.38;5099067;28;20044;-59
2021/04/17 09:44:49;;;;;;;0.10;0.10;;;;;;;10.78;26.27;98816.03;5103508;28;20056;-60
2021/04/17 09:47:17;;;;;;;0.10;0.10;;;;;;;10.82;26.31;98810.91;5103410;28;20550;-60
2021/04/17 09:49:48;;;;;;;0.10;0.10;;;;;;;10.85;26.31;98814.03;5090962;28;20543;-61
2021/04/17 09:52:22;;;;;;;0.20;0.20;;;;;;;10.89;26.34;98805.31;5103401;28;20508;-61
2021/04/17 09:55:00;;;;;;;0.10;0.10;;;;;;;10.94;26.20;98797.19;5092240;28;20027;-60
2021/04/17 09:57:30;;;;;;;0.10;0.10;;;;;;;10.94;26.26;98798.03;5085360;28;20042;-61
2021/04/17 10:00:10;;;;;;;0.10;0.10;;;;;;;10.94;26.24;98797.19;5087611;28;20031;-61
2021/04/17 10:02:44;;;;;;;0.55;0.55;;;;;;;10.94;26.24;98791.69;5059795;28;20090;-59
2021/04/17 10:05:14;;;;;;;0.10;0.10;;;;;;;11.01;26.11;98785.03;5075025;28;20033;-59
2021/04/17 10:07:44;;;;;;;0.20;0.20;;;;;;;11.16;26.00;98789.19;5095207;28;20089;-59
2021/04/17 10:10:11;;;;;;;0.10;0.10;;;;;;;11.33;25.96;98790.13;5085198;28;20028;-60
2021/04/17 10:12:54;;;;;;;0.17;0.17;;;;;;;11.40;25.91;98792.78;5103741;28;20553;-59
2021/04/17 10:15:29;;;;;;;0.30;0.30;;;;;;;11.38;25.89;98789.41;5094555;28;20041;-60
2021/04/17 10:18:00;;;;;;;0.45;0.20;;;;;;;11.38;25.89;98789.41;5093835;28;20119;-60
2021/04/17 10:20:27;;;;;;;1.35;0.65;;;;;;;11.41;25.85;98764.22;5094160;28;20111;-59
2021/04/17 10:22:58;;;;;;;0.20;0.20;;;;;;;11.39;26.12;98769.09;5094203;28;20032;-60
2021/04/17 10:25:34;;;;;;;0.35;0.35;;;;;;;11.37;26.13;98772.09;5059636;28;20040;-59
2021/04/17 10:28:22;;;;;;;0.10;0.10;;;;;;;11.33;26.34;98772.81;5080397;28;20062;-60
2021/04/17 10:30:53;;;;;;;0.10;0.10;;;;;;;11.27;26.25;98773.78;5065920;28;20401;-55
2021/04/17 10:33:26;;;;;;;0.10;0.10;;;;;;;11.25;26.27;98775.91;5072003;28;20036;-57
2021/04/17 10:35:54;;;;;;;0.13;0.13;;;;;;;11.32;26.34;98776.63;5090591;28;20425;-54
2021/04/17 10:38:30;;;;;;;0.10;0.10;;;;;;;11.37;26.03;98772.09;5094191;28;20581;-52
2021/04/17 10:40:58;;;;;;;0.10;0.10;;;;;;;11.45;25.98;98770.03;5094266;28;20074;-51
2021/04/17 10:43:24;;;;;;;0.25;0.25;;;;;;;11.55;25.94;98762.84;5094365;28;20119;-51
2021/04/17 10:45:55;;;;;;;0.10;0.10;;;;;;;11.63;25.84;98755.31;5094462;28;20036;-55
2021/04/17 10:48:24;;;;;;;0.10;0.10;;;;;;;11.71;25.77;98757.69;5094003;28;20120;-60
2021/04/17 10:51:10;;;;;;;0.25;0.20;;;;;;;11.81;25.80;98757.06;5093928;28;20114;-60
2021/04/17 10:53:40;;;;;;;0.20;0.20;;;;;;;11.88;25.69;98746.72;5075843;28;20067;-53
2021/04/17 10:56:21;;;;;;;0.10;0.10;;;;;;;11.99;25.66;98742.31;5094066;28;20032;-54
2021/04/17 10:59:00;;;;;;;0.17;0.17;;;;;;;12.11;25.77;98732.06;5094165;28;20405;-54
2021/04/17 11:01:28;;;;;;;0.17;0.17;;;;;;;12.21;25.33;98731.44;5077797;28;20036;-55
2021/04/17 11:03:59;;;;;;;0.10;0.10;;;;;;;12.27;25.40;98709.22;5093888;28;20036;-59
2021/04/17 11:06:35;;;;;;;0.10;0.10;;;;;;;12.36;25.48;98708.84;5089176;28;20038;-56
2021/04/17 11:09:11;;;;;;;0.10;0.10;;;;;;;12.47;25.23;98731.88;5080754;28;20028;-63
2021/04/17 11:11:50;;;;;;;0.10;0.10;;;;;;;12.58;25.10;98728.22;5084846;28;20113;-53
2021/04/17 11:14:20;;;;;;;0.10;0.10;;;;;;;12.65;25.03;98714.25;5081789;28;20057;-55
2021/04/17 11:16:49;;;;;;;0.30;0.30;;;;;;;12.75;25.22;98728.19;5086645;28;20032;-53
2021/04/17 11:19:29;;;;;;;0.10;0.10;;;;;;;12.80;25.01;98714.50;5087198;28;20090;-60
2021/04/17 11:22:14;;;;;;;0.10;0.10;;;;;;;12.83;25.31;98702.16;5084012;28;20109;-59
2021/04/17 11:25:05;;;;;;;0.10;0.10;;;;;;;12.92;24.98;98697.88;5083281;28;20586;-59
2021/04/17 11:27:31;;;;;;;0.20;0.20;;;;;;;13.01;25.00;98701.03;5073020;28;20048;-60
2021/04/17 11:29:58;;;;;;;0.10;0.10;;;;;;;13.11;25.09;98703.94;5090098;28;20490;-59
2021/04/17 11:32:26;;;;;;;0.10;0.10;;;;;;;13.20;25.09;98713.44;5093113;28;20451;-59
2021/04/17 11:34:52;;;;;;;0.10;0.10;;;;;;;13.28;24.96;98701.97;5080722;28;20394;-60
2021/04/17 11:37:18;;;;;;;0.10;0.10;;;;;;;13.31;25.03;98709.72;5072712;28;20135;-55
2021/04/17 11:39:44;;;;;;;0.10;0.10;;;;;;;13.30;24.90;98697.03;5079636;28;20036;-59
2021/04/17 11:42:11;;;;;;;0.25;0.25;;;;;;;13.30;24.97;98694.28;5078706;28;20040;-59
2021/04/17 11:44:39;;;;;;;0.80;0.50;;;;;;;13.31;25.30;98679.41;5086428;28;20111;-58
2021/04/17 11:47:05;;;;;;;0.10;0.10;;;;;;;13.31;25.13;98687.66;5078329;28;20028;-53